Time;durP1;ratioP1;P1;durP2;ratioP2;P2;SDS_P1;SDS_P2;PMS_P1;PMS_P2;Temp;Humidity;BMP_temperature;BMP_pressure;BME280_temperature;BME280_humidity;BME280_pressure;Samples;Min_cycle;Max_cycle;Signal;HPM_P1;HPM_P2
2024/02/25 00:00:01;;;;;;;64.00;8.15;;;;;;;;;;5074471;28;20230;-69
2024/02/25 00:02:28;;;;;;;61.97;8.05;;;;;;;;;;5074979;28;20240;-70
2024/02/25 00:04:56;;;;;;;60.75;6.57;;;;;;;;;;5074523;28;20221;-69
2024/02/25 00:07:23;;;;;;;61.00;7.10;;;;;;;;;;5074667;28;20308;-69
2024/02/25 00:09:50;;;;;;;60.28;6.38;;;;;;;;;;5074447;28;20215;-69
2024/02/25 00:12:18;;;;;;;59.95;7.45;;;;;;;;;;5074676;28;20217;-69
2024/02/25 00:14:45;;;;;;;61.80;6.95;;;;;;;;;;5074600;28;20298;-69
2024/02/25 00:17:12;;;;;;;58.72;5.50;;;;;;;;;;5074603;28;20256;-71
2024/02/25 00:19:39;;;;;;;60.20;7.32;;;;;;;;;;5074598;28;20204;-68
2024/02/25 00:22:08;;;;;;;62.00;7.32;;;;;;;;;;5074436;28;20677;-70
2024/02/25 00:24:35;;;;;;;60.17;7.20;;;;;;;;;;5074185;28;20224;-69
2024/02/25 00:27:02;;;;;;;61.60;7.05;;;;;;;;;;5074493;28;20705;-69
2024/02/25 00:29:29;;;;;;;61.75;6.82;;;;;;;;;;5074414;28;20238;-69
2024/02/25 00:31:56;;;;;;;59.67;6.65;;;;;;;;;;5074641;28;20209;-69
2024/02/25 00:34:23;;;;;;;62.85;7.82;;;;;;;;;;5074016;28;20209;-70
2024/02/25 00:36:50;;;;;;;59.00;5.80;;;;;;;;;;5073813;28;20277;-69
2024/02/25 00:39:19;;;;;;;62.63;8.10;;;;;;;;;;5053968;28;20218;-69
2024/02/25 00:41:48;;;;;;;58.60;6.20;;;;;;;;;;5054238;28;20216;-70
2024/02/25 00:44:15;;;;;;;60.03;6.65;;;;;;;;;;5053817;28;20586;-70
2024/02/25 00:46:42;;;;;;;60.35;7.00;;;;;;;;;;5054104;28;20229;-69
2024/02/25 00:49:09;;;;;;;60.42;7.15;;;;;;;;;;5053862;28;20205;-68
2024/02/25 00:51:36;;;;;;;61.13;7.20;;;;;;;;;;5053795;28;20282;-68
2024/02/25 00:54:04;;;;;;;62.67;7.82;;;;;;;;;;5053476;28;20202;-69
2024/02/25 00:56:33;;;;;;;61.45;8.50;;;;;;;;;;5053880;28;20286;-69
2024/02/25 00:59:00;;;;;;;60.22;7.07;;;;;;;;;;5053802;28;20231;-68
2024/02/25 01:01:27;;;;;;;60.65;7.07;;;;;;;;;;5054111;28;20215;-68
2024/02/25 01:03:55;;;;;;;60.42;7.45;;;;;;;;;;5071967;28;20234;-68
2024/02/25 01:06:22;;;;;;;59.33;6.07;;;;;;;;;;5072675;28;20232;-69
2024/02/25 01:08:49;;;;;;;59.75;6.15;;;;;;;;;;5073528;28;20673;-69
2024/02/25 01:11:16;;;;;;;59.83;6.20;;;;;;;;;;5073789;28;20229;-69
2024/02/25 01:13:47;;;;;;;61.65;6.43;;;;;;;;;;5073723;28;20290;-69
2024/02/25 01:16:14;;;;;;;61.20;6.28;;;;;;;;;;5065476;28;20227;-69
2024/02/25 01:18:41;;;;;;;61.63;7.05;;;;;;;;;;5073577;28;20244;-68
2024/02/25 01:21:08;;;;;;;61.45;7.60;;;;;;;;;;5073209;28;20211;-69
2024/02/25 01:23:35;;;;;;;59.88;6.85;;;;;;;;;;5073103;28;20223;-68
2024/02/25 01:26:02;;;;;;;60.95;7.53;;;;;;;;;;5073256;28;20228;-69
2024/02/25 01:28:30;;;;;;;60.15;7.70;;;;;;;;;;5065107;28;20262;-71
2024/02/25 01:30:58;;;;;;;60.90;7.32;;;;;;;;;;5073288;28;20254;-69
2024/02/25 01:33:25;;;;;;;61.78;7.70;;;;;;;;;;5072775;28;20221;-70
2024/02/25 01:35:53;;;;;;;60.33;6.35;;;;;;;;;;5072773;28;20234;-69
2024/02/25 01:38:20;;;;;;;61.15;7.28;;;;;;;;;;5073101;28;20230;-70
2024/02/25 01:40:47;;;;;;;60.92;7.20;;;;;;;;;;5073192;28;20214;-69
2024/02/25 01:43:16;;;;;;;59.53;6.78;;;;;;;;;;5072741;28;20201;-70
2024/02/25 01:45:44;;;;;;;60.65;6.85;;;;;;;;;;5072792;28;20228;-69
2024/02/25 01:48:14;;;;;;;59.20;6.60;;;;;;;;;;5072663;28;20657;-69
2024/02/25 01:50:41;;;;;;;59.85;7.50;;;;;;;;;;5072805;28;20208;-69
2024/02/25 01:53:10;;;;;;;61.35;7.60;;;;;;;;;;5072983;28;20269;-70
2024/02/25 01:55:38;;;;;;;59.78;6.65;;;;;;;;;;5072694;28;20595;-69
2024/02/25 01:58:07;;;;;;;60.80;7.90;;;;;;;;;;5072452;28;20218;-69
2024/02/25 02:00:34;;;;;;;59.90;6.95;;;;;;;;;;5072451;28;20582;-71
2024/02/25 02:03:01;;;;;;;60.55;6.93;;;;;;;;;;5072544;28;20215;-69
2024/02/25 02:05:30;;;;;;;60.05;7.20;;;;;;;;;;5072497;28;20232;-70
2024/02/25 02:07:57;;;;;;;62.08;6.97;;;;;;;;;;5072368;28;20209;-69
2024/02/25 02:10:24;;;;;;;60.80;7.25;;;;;;;;;;5067750;28;20209;-69
2024/02/25 02:12:51;;;;;;;59.88;6.75;;;;;;;;;;5052411;28;20652;-70
2024/02/25 02:15:18;;;;;;;60.72;6.68;;;;;;;;;;5052111;28;20201;-69
2024/02/25 02:17:46;;;;;;;59.30;6.45;;;;;;;;;;5052122;28;20567;-69
2024/02/25 02:20:16;;;;;;;60.63;7.72;;;;;;;;;;5052246;28;20212;-69
2024/02/25 02:22:45;;;;;;;60.63;7.63;;;;;;;;;;5052292;28;20298;-69
2024/02/25 02:25:15;;;;;;;60.75;7.60;;;;;;;;;;5051724;28;20662;-69
2024/02/25 02:27:42;;;;;;;59.78;6.78;;;;;;;;;;5052008;28;20641;-69
2024/02/25 02:30:10;;;;;;;60.53;7.30;;;;;;;;;;5052111;28;20214;-69
2024/02/25 02:32:37;;;;;;;61.63;7.15;;;;;;;;;;5052194;28;20208;-70
2024/02/25 02:35:05;;;;;;;61.15;6.90;;;;;;;;;;5051486;28;20217;-69
2024/02/25 02:37:32;;;;;;;59.05;6.43;;;;;;;;;;5052132;28;20584;-69
2024/02/25 02:40:00;;;;;;;61.70;6.88;;;;;;;;;;5051896;28;20678;-70
2024/02/25 02:42:30;;;;;;;61.03;6.10;;;;;;;;;;5065618;28;20213;-69
2024/02/25 02:44:58;;;;;;;62.33;6.07;;;;;;;;;;5071800;28;20319;-70
2024/02/25 02:47:25;;;;;;;61.70;7.40;;;;;;;;;;5071693;28;20621;-69
2024/02/25 02:49:53;;;;;;;61.30;6.80;;;;;;;;;;5071827;28;20211;-69
2024/02/25 02:52:20;;;;;;;59.55;6.38;;;;;;;;;;5071996;28;20212;-70
2024/02/25 02:54:47;;;;;;;59.35;6.03;;;;;;;;;;5071544;28;20706;-68
2024/02/25 02:57:15;;;;;;;63.70;6.72;;;;;;;;;;5071680;28;20223;-69
2024/02/25 02:59:42;;;;;;;60.03;6.65;;;;;;;;;;5071867;28;20210;-69
2024/02/25 03:02:09;;;;;;;62.50;7.47;;;;;;;;;;5071580;28;20211;-69
2024/02/25 03:04:38;;;;;;;61.28;7.00;;;;;;;;;;5071224;28;20262;-69
2024/02/25 03:07:05;;;;;;;59.85;7.43;;;;;;;;;;5071488;28;20231;-68
2024/02/25 03:09:32;;;;;;;61.85;8.38;;;;;;;;;;5071581;28;20270;-69
2024/02/25 03:11:59;;;;;;;61.33;8.00;;;;;;;;;;5071345;28;20222;-70
2024/02/25 03:14:28;;;;;;;60.28;7.22;;;;;;;;;;5071212;28;20627;-69
2024/02/25 03:16:55;;;;;;;62.85;7.45;;;;;;;;;;5071608;28;20253;-69
2024/02/25 03:19:22;;;;;;;61.13;7.55;;;;;;;;;;5071612;28;20656;-69
2024/02/25 03:21:50;;;;;;;60.22;6.60;;;;;;;;;;5071229;28;20238;-69
2024/02/25 03:24:17;;;;;;;61.03;7.95;;;;;;;;;;5071026;28;20227;-69
2024/02/25 03:26:47;;;;;;;58.95;6.80;;;;;;;;;;5071432;28;20232;-69
2024/02/25 03:29:14;;;;;;;60.35;7.30;;;;;;;;;;5073308;28;20204;-70
2024/02/25 03:31:43;;;;;;;61.10;6.75;;;;;;;;;;5075384;28;20208;-69
2024/02/25 03:34:10;;;;;;;62.30;7.65;;;;;;;;;;5075117;28;20223;-69
2024/02/25 03:36:38;;;;;;;59.40;6.97;;;;;;;;;;5075451;28;20228;-68
2024/02/25 03:39:05;;;;;;;60.05;7.03;;;;;;;;;;5075249;28;20210;-68
2024/02/25 03:41:32;;;;;;;60.10;7.30;;;;;;;;;;5075286;28;20263;-69
2024/02/25 03:43:59;;;;;;;60.88;7.47;;;;;;;;;;5075006;28;20207;-69
2024/02/25 03:46:26;;;;;;;60.28;7.13;;;;;;;;;;5075144;28;20253;-69
2024/02/25 03:48:55;;;;;;;59.55;6.20;;;;;;;;;;5075045;28;20265;-68
2024/02/25 03:51:22;;;;;;;59.28;6.53;;;;;;;;;;5067301;28;20215;-68
2024/02/25 03:53:49;;;;;;;59.50;6.00;;;;;;;;;;5074722;28;20204;-70
2024/02/25 03:56:16;;;;;;;60.65;6.57;;;;;;;;;;5075128;28;20215;-69
2024/02/25 03:58:43;;;;;;;59.35;6.40;;;;;;;;;;5074936;28;20586;-70
2024/02/25 04:01:10;;;;;;;59.50;7.18;;;;;;;;;;5074729;28;20839;-70
2024/02/25 04:03:37;;;;;;;60.65;7.00;;;;;;;;;;5074655;28;20213;-69
2024/02/25 04:06:07;;;;;;;60.30;6.00;;;;;;;;;;5074987;28;20238;-70
2024/02/25 04:08:34;;;;;;;60.40;7.13;;;;;;;;;;5075036;28;20273;-69
2024/02/25 04:11:01;;;;;;;59.50;6.28;;;;;;;;;;5074618;28;20208;-69
2024/02/25 04:13:28;;;;;;;59.80;6.70;;;;;;;;;;5074559;28;20210;-69
2024/02/25 04:15:55;;;;;;;59.78;7.30;;;;;;;;;;5074048;28;20724;-69
2024/02/25 04:18:22;;;;;;;58.47;6.38;;;;;;;;;;5074577;28;20212;-69
2024/02/25 04:20:49;;;;;;;59.28;6.68;;;;;;;;;;5067418;28;20703;-69
2024/02/25 04:23:18;;;;;;;60.58;6.85;;;;;;;;;;5073827;28;20211;-69
2024/02/25 04:25:45;;;;;;;58.38;6.13;;;;;;;;;;5074299;28;20251;-71
2024/02/25 04:28:12;;;;;;;59.45;7.10;;;;;;;;;;5074393;28;20208;-69
2024/02/25 04:30:39;;;;;;;59.80;6.60;;;;;;;;;;5074401;28;20212;-69
2024/02/25 04:33:06;;;;;;;59.38;6.80;;;;;;;;;;5074088;28;20213;-69
2024/02/25 04:35:33;;;;;;;58.75;6.18;;;;;;;;;;5074150;28;20825;-70
2024/02/25 04:38:02;;;;;;;61.05;7.25;;;;;;;;;;5074168;28;20207;-69
2024/02/25 04:40:31;;;;;;;60.03;8.00;;;;;;;;;;5074291;28;20240;-70
2024/02/25 04:42:59;;;;;;;59.28;6.88;;;;;;;;;;5073964;28;20295;-69
2024/02/25 04:45:26;;;;;;;59.80;7.10;;;;;;;;;;5074161;28;20223;-70
2024/02/25 04:47:53;;;;;;;60.53;7.18;;;;;;;;;;5074245;28;20199;-70
2024/02/25 04:50:20;;;;;;;59.47;7.13;;;;;;;;;;5074032;28;20210;-70
2024/02/25 04:52:47;;;;;;;59.65;6.18;;;;;;;;;;5074210;28;20682;-70
2024/02/25 04:55:15;;;;;;;59.38;5.95;;;;;;;;;;5073701;28;20207;-70
2024/02/25 04:57:43;;;;;;;58.92;6.65;;;;;;;;;;5073975;28;20239;-69
2024/02/25 05:00:11;;;;;;;59.45;5.60;;;;;;;;;;5073986;28;20586;-70
2024/02/25 05:02:38;;;;;;;59.35;6.35;;;;;;;;;;5073976;28;20203;-70
2024/02/25 05:05:06;;;;;;;59.60;5.95;;;;;;;;;;5073459;28;20319;-69
2024/02/25 05:07:33;;;;;;;60.22;6.05;;;;;;;;;;5074197;28;20204;-69
2024/02/25 05:10:00;;;;;;;58.00;5.82;;;;;;;;;;5073175;28;20215;-70
2024/02/25 05:12:27;;;;;;;58.85;5.60;;;;;;;;;;5074032;28;20203;-70
2024/02/25 05:14:55;;;;;;;59.13;6.38;;;;;;;;;;5073454;28;20573;-70
2024/02/25 05:17:23;;;;;;;58.00;5.80;;;;;;;;;;5062037;28;20231;-70
2024/02/25 05:19:50;;;;;;;59.97;6.03;;;;;;;;;;5053338;28;20213;-71
2024/02/25 05:22:17;;;;;;;58.63;6.32;;;;;;;;;;5053426;28;20213;-70
2024/02/25 05:24:44;;;;;;;58.47;5.60;;;;;;;;;;5052787;28;20201;-71
2024/02/25 05:27:12;;;;;;;62.75;6.20;;;;;;;;;;5053438;28;20228;-69
2024/02/25 05:29:39;;;;;;;59.88;5.75;;;;;;;;;;5052959;28;20241;-70
2024/02/25 05:32:08;;;;;;;58.55;5.43;;;;;;;;;;5052820;28;20205;-70
2024/02/25 05:34:35;;;;;;;58.58;6.03;;;;;;;;;;5052969;28;20211;-69
2024/02/25 05:37:02;;;;;;;59.75;5.50;;;;;;;;;;5053024;28;20221;-73
2024/02/25 05:39:29;;;;;;;60.95;6.60;;;;;;;;;;5053231;28;20200;-70
2024/02/25 05:41:56;;;;;;;59.00;5.68;;;;;;;;;;5053088;28;20211;-69
2024/02/25 05:44:24;;;;;;;59.38;6.10;;;;;;;;;;5052911;28;20262;-69
2024/02/25 05:46:51;;;;;;;59.65;6.28;;;;;;;;;;5052875;28;20229;-69
2024/02/25 05:49:19;;;;;;;58.88;5.88;;;;;;;;;;5052776;28;20266;-69
2024/02/25 05:51:46;;;;;;;58.38;5.53;;;;;;;;;;5052338;28;20201;-71
2024/02/25 05:54:13;;;;;;;59.72;6.47;;;;;;;;;;5052379;28;20212;-70
2024/02/25 05:56:41;;;;;;;58.72;5.78;;;;;;;;;;5053087;28;20225;-70
2024/02/25 05:59:08;;;;;;;58.60;6.10;;;;;;;;;;5052832;28;20219;-69
2024/02/25 06:01:36;;;;;;;60.28;6.60;;;;;;;;;;5052769;28;20201;-69
2024/02/25 06:04:03;;;;;;;58.63;5.97;;;;;;;;;;5052578;28;20215;-69
2024/02/25 06:06:32;;;;;;;60.10;6.10;;;;;;;;;;5052313;28;20233;-69
2024/02/25 06:08:59;;;;;;;59.17;6.35;;;;;;;;;;5060694;28;20208;-69
2024/02/25 06:11:26;;;;;;;59.08;6.00;;;;;;;;;;5064470;28;20203;-69
2024/02/25 06:13:53;;;;;;;59.75;6.38;;;;;;;;;;5072314;28;20644;-69
2024/02/25 06:16:20;;;;;;;59.85;6.30;;;;;;;;;;5072296;28;20237;-69
2024/02/25 06:18:48;;;;;;;58.88;6.38;;;;;;;;;;5072248;28;20214;-70
2024/02/25 06:21:15;;;;;;;58.90;6.30;;;;;;;;;;5072134;28;20744;-69
2024/02/25 06:23:44;;;;;;;59.40;6.35;;;;;;;;;;5072525;28;20211;-69
2024/02/25 06:26:12;;;;;;;59.70;6.60;;;;;;;;;;5072317;28;20607;-69
2024/02/25 06:28:39;;;;;;;63.10;7.22;;;;;;;;;;5072189;28;20359;-70
2024/02/25 06:31:06;;;;;;;59.97;6.85;;;;;;;;;;5072091;28;20227;-70
2024/02/25 06:33:34;;;;;;;59.42;6.45;;;;;;;;;;5071684;28;20222;-69
2024/02/25 06:36:01;;;;;;;60.40;5.88;;;;;;;;;;5072257;28;20225;-70
2024/02/25 06:38:28;;;;;;;58.75;5.95;;;;;;;;;;5063926;28;20208;-70
2024/02/25 06:40:57;;;;;;;58.72;6.05;;;;;;;;;;5072396;28;20202;-69
2024/02/25 06:43:25;;;;;;;59.33;5.93;;;;;;;;;;5072110;28;20208;-70
2024/02/25 06:45:52;;;;;;;58.78;5.43;;;;;;;;;;5071676;28;20317;-69
2024/02/25 06:48:20;;;;;;;58.50;5.50;;;;;;;;;;5072138;28;20207;-69
2024/02/25 06:50:47;;;;;;;58.05;5.63;;;;;;;;;;5071770;28;20741;-69
2024/02/25 06:53:14;;;;;;;58.22;5.30;;;;;;;;;;5071829;28;20204;-69
2024/02/25 06:55:41;;;;;;;59.42;5.82;;;;;;;;;;5072036;28;20692;-68
2024/02/25 06:58:09;;;;;;;58.65;5.85;;;;;;;;;;5071958;28;20245;-69
2024/02/25 07:00:38;;;;;;;58.20;5.57;;;;;;;;;;5071666;28;20503;-69
2024/02/25 07:03:05;;;;;;;57.90;5.57;;;;;;;;;;5070752;28;20204;-69
2024/02/25 07:05:33;;;;;;;58.45;5.60;;;;;;;;;;5071380;28;20220;-69
2024/02/25 07:08:00;;;;;;;59.65;6.30;;;;;;;;;;5072006;28;20205;-71
2024/02/25 07:10:27;;;;;;;58.20;5.22;;;;;;;;;;5063536;28;20207;-69
2024/02/25 07:12:54;;;;;;;59.25;6.00;;;;;;;;;;5071815;28;20211;-70
2024/02/25 07:15:22;;;;;;;59.78;6.05;;;;;;;;;;5071676;28;20231;-69
2024/02/25 07:17:52;;;;;;;59.65;5.85;;;;;;;;;;5071757;28;20204;-69
2024/02/25 07:20:19;;;;;;;58.75;5.35;;;;;;;;;;5071781;28;20216;-69
2024/02/25 07:22:46;;;;;;;59.00;5.80;;;;;;;;;;5071380;28;20209;-70
2024/02/25 07:25:14;;;;;;;57.80;5.75;;;;;;;;;;5071131;28;20301;-69
2024/02/25 07:27:41;;;;;;;59.92;6.53;;;;;;;;;;5071417;28;20211;-68
2024/02/25 07:30:08;;;;;;;59.55;6.55;;;;;;;;;;5071447;28;20205;-70
2024/02/25 07:32:37;;;;;;;58.05;5.00;;;;;;;;;;5071488;28;20209;-68
2024/02/25 07:35:04;;;;;;;58.35;5.70;;;;;;;;;;5071356;28;20660;-68
2024/02/25 07:37:31;;;;;;;60.80;5.63;;;;;;;;;;5071453;28;20193;-68
2024/02/25 07:39:58;;;;;;;58.78;5.20;;;;;;;;;;5071171;28;20209;-69
2024/02/25 07:42:25;;;;;;;61.13;6.70;;;;;;;;;;5071696;28;20210;-69
2024/02/25 07:44:53;;;;;;;58.55;5.20;;;;;;;;;;5071104;28;20211;-69
2024/02/25 07:47:20;;;;;;;58.90;5.15;;;;;;;;;;5070930;28;20232;-69
2024/02/25 07:49:48;;;;;;;57.20;4.60;;;;;;;;;;5071090;28;20663;-69
2024/02/25 07:52:15;;;;;;;59.07;5.53;;;;;;;;;;5071168;28;20470;-69
2024/02/25 07:54:42;;;;;;;59.23;5.10;;;;;;;;;;5070935;28;20817;-68
2024/02/25 07:57:09;;;;;;;59.60;5.60;;;;;;;;;;5071254;28;20461;-68
2024/02/25 07:59:38;;;;;;;58.87;5.70;;;;;;;;;;5071430;28;20448;-68
2024/02/25 08:02:05;;;;;;;59.63;5.20;;;;;;;;;;5071035;28;20446;-69
2024/02/25 08:04:35;;;;;;;60.75;6.32;;;;;;;;;;5071083;28;20444;-69
2024/02/25 08:07:04;;;;;;;58.07;5.10;;;;;;;;;;5071256;28;20755;-69
2024/02/25 08:09:31;;;;;;;59.57;5.20;;;;;;;;;;5071098;28;20826;-69
2024/02/25 08:11:58;;;;;;;59.07;6.13;;;;;;;;;;5071206;28;20545;-68
2024/02/25 08:14:25;;;;;;;58.67;4.70;;;;;;;;;;5071632;28;20450;-68
2024/02/25 08:16:52;;;;;;;59.07;5.77;;;;;;;;;;5074761;28;20460;-68
2024/02/25 08:19:19;;;;;;;58.30;4.57;;;;;;;;;;5074617;28;20448;-68
2024/02/25 08:21:46;;;;;;;58.47;4.40;;;;;;;;;;5074467;28;20451;-68
2024/02/25 08:24:16;;;;;;;58.03;4.50;;;;;;;;;;5074369;28;20451;-69
2024/02/25 08:26:43;;;;;;;57.80;4.97;;;;;;;;;;5074733;28;20733;-68
2024/02/25 08:29:10;;;;;;;58.10;5.53;;;;;;;;;;5074358;28;20452;-68
2024/02/25 08:31:37;;;;;;;59.40;6.30;;;;;;;;;;5074272;28;20932;-69
2024/02/25 08:34:05;;;;;;;59.47;5.10;;;;;;;;;;5073943;28;20460;-69
2024/02/25 08:36:32;;;;;;;57.93;4.60;;;;;;;;;;5073972;28;20468;-69
2024/02/25 08:38:59;;;;;;;58.33;4.70;;;;;;;;;;5074103;28;20944;-69
2024/02/25 08:41:27;;;;;;;58.10;5.10;;;;;;;;;;5074235;28;20823;-69
2024/02/25 08:43:54;;;;;;;58.60;5.20;;;;;;;;;;5073996;28;20542;-69
2024/02/25 08:46:21;;;;;;;57.60;4.30;;;;;;;;;;5073847;28;20484;-69
2024/02/25 08:48:48;;;;;;;57.70;4.80;;;;;;;;;;5073982;28;20445;-69
2024/02/25 08:51:15;;;;;;;58.10;4.20;;;;;;;;;;5073877;28;20949;-69
2024/02/25 08:53:42;;;;;;;58.67;5.00;;;;;;;;;;5073858;28;20440;-70
2024/02/25 08:56:10;;;;;;;59.57;5.10;;;;;;;;;;5073969;28;20455;-69
2024/02/25 08:58:38;;;;;;;58.77;4.60;;;;;;;;;;5073870;28;20436;-70
2024/02/25 09:01:05;;;;;;;58.00;3.87;;;;;;;;;;5073579;28;20448;-69
2024/02/25 09:03:32;;;;;;;57.47;3.93;;;;;;;;;;5073484;28;20441;-70
2024/02/25 09:05:59;;;;;;;57.03;3.43;;;;;;;;;;5073716;28;20492;-69
2024/02/25 09:08:26;;;;;;;56.43;3.50;;;;;;;;;;5073940;28;20452;-71
2024/02/25 09:10:53;;;;;;;56.90;3.43;;;;;;;;;;5073597;28;20445;-70
2024/02/25 09:13:22;;;;;;;56.60;3.50;;;;;;;;;;5073248;28;20460;-70
2024/02/25 09:15:50;;;;;;;57.37;3.60;;;;;;;;;;5073348;28;20565;-70
2024/02/25 09:18:18;;;;;;;56.60;3.60;;;;;;;;;;5073638;28;20472;-70
2024/02/25 09:20:45;;;;;;;56.87;3.37;;;;;;;;;;5073532;28;20457;-70
2024/02/25 09:23:12;;;;;;;58.07;3.50;;;;;;;;;;5073356;28;20452;-70
2024/02/25 09:25:40;;;;;;;58.20;4.33;;;;;;;;;;5072913;28;20469;-70
2024/02/25 09:28:08;;;;;;;56.47;3.20;;;;;;;;;;5073260;28;20481;-70
2024/02/25 09:30:35;;;;;;;57.20;3.60;;;;;;;;;;5073072;28;20474;-70
2024/02/25 09:33:05;;;;;;;56.40;3.07;;;;;;;;;;5073164;28;20460;-70
2024/02/25 09:35:32;;;;;;;57.30;3.70;;;;;;;;;;5073137;28;20456;-70
2024/02/25 09:37:59;;;;;;;55.73;3.10;;;;;;;;;;5072928;28;20445;-70
2024/02/25 09:40:26;;;;;;;56.17;2.73;;;;;;;;;;5073108;28;20468;-70
2024/02/25 09:42:53;;;;;;;56.37;3.00;;;;;;;;;;5072882;28;20442;-70
2024/02/25 09:45:21;;;;;;;56.60;2.53;;;;;;;;;;5072835;28;20466;-69
2024/02/25 09:47:50;;;;;;;58.37;2.93;;;;;;;;;;5059761;28;20484;-70
2024/02/25 09:50:19;;;;;;;57.40;2.40;;;;;;;;;;5053113;28;20451;-72
2024/02/25 09:52:47;;;;;;;56.67;2.70;;;;;;;;;;5052930;28;21009;-70
2024/02/25 09:55:14;;;;;;;57.53;3.00;;;;;;;;;;5052467;28;20454;-69
2024/02/25 09:57:41;;;;;;;56.87;2.83;;;;;;;;;;5052745;28;20447;-70
2024/02/25 10:00:10;;;;;;;55.53;2.93;;;;;;;;;;5052942;28;20817;-70
2024/02/25 10:02:37;;;;;;;58.03;2.73;;;;;;;;;;5064529;28;20534;-69
2024/02/25 10:05:05;;;;;;;57.80;2.83;;;;;;;;;;5072425;28;20533;-70
2024/02/25 10:07:33;;;;;;;56.17;2.67;;;;;;;;;;5072427;28;20480;-70
2024/02/25 10:10:02;;;;;;;55.87;2.43;;;;;;;;;;5072307;28;20446;-70
2024/02/25 10:12:29;;;;;;;56.40;2.40;;;;;;;;;;5072581;28;20450;-69
2024/02/25 10:14:56;;;;;;;55.73;2.40;;;;;;;;;;5072320;28;20450;-68
2024/02/25 10:17:23;;;;;;;55.07;2.53;;;;;;;;;;5072256;28;20467;-70
2024/02/25 10:19:56;;;;;;;56.47;2.50;;;;;;;;;;5072288;28;20452;-69
2024/02/25 10:22:24;;;;;;;56.70;3.30;;;;;;;;;;5072201;28;20963;-69
2024/02/25 10:24:52;;;;;;;55.90;2.20;;;;;;;;;;5072297;28;20454;-69
2024/02/25 10:27:22;;;;;;;55.53;2.13;;;;;;;;;;5072054;28;20487;-71
2024/02/25 10:29:52;;;;;;;56.07;2.40;;;;;;;;;;5064058;28;20458;-69
2024/02/25 10:32:23;;;;;;;56.57;2.33;;;;;;;;;;5072163;28;20444;-69
2024/02/25 10:34:51;;;;;;;55.67;2.30;;;;;;;;;;5071922;28;20992;-69
2024/02/25 10:37:20;;;;;;;55.97;2.10;;;;;;;;;;5071769;28;20460;-68
2024/02/25 10:39:48;;;;;;;56.43;2.50;;;;;;;;;;5071859;28;20444;-68
2024/02/25 10:42:17;;;;;;;56.00;2.17;;;;;;;;;;5072001;28;20450;-69
2024/02/25 10:44:44;;;;;;;56.37;2.20;;;;;;;;;;5071703;28;20452;-69
2024/02/25 10:47:15;;;;;;;55.63;2.00;;;;;;;;;;5071617;28;21006;-69
2024/02/25 10:49:44;;;;;;;55.70;2.10;;;;;;;;;;5071722;28;21020;-69
2024/02/25 10:52:13;;;;;;;55.83;2.40;;;;;;;;;;5072105;28;20486;-69
2024/02/25 10:54:41;;;;;;;56.60;2.70;;;;;;;;;;5063625;28;20546;-70
2024/02/25 10:57:10;;;;;;;57.30;2.77;;;;;;;;;;5071731;28;20558;-69
2024/02/25 10:59:40;;;;;;;58.70;2.30;;;;;;;;;;5068737;28;20430;-70
2024/02/25 11:02:09;;;;;;;56.30;2.60;;;;;;;;;;5070022;28;20216;-70
2024/02/25 11:04:36;;;;;;;55.50;2.20;;;;;;;;;;5070277;28;20463;-70
2024/02/25 11:07:05;;;;;;;55.73;2.30;;;;;;;;;;5070725;28;20491;-73
2024/02/25 11:09:33;;;;;;;55.90;2.17;;;;;;;;;;5070657;28;20542;-71
2024/02/25 11:12:15;;;;;;;55.90;2.20;;;;;;;;;;5070735;28;20947;-71
2024/02/25 11:14:50;;;;;;;56.30;2.30;;;;;;;;;;5070789;28;20819;-72
2024/02/25 11:17:17;;;;;;;55.60;2.30;;;;;;;;;;5071523;28;20451;-70
2024/02/25 11:19:44;;;;;;;55.50;1.97;;;;;;;;;;5071024;28;20996;-71
2024/02/25 11:22:11;;;;;;;56.07;2.30;;;;;;;;;;5071480;28;20535;-71
2024/02/25 11:24:48;;;;;;;55.50;1.93;;;;;;;;;;5071261;28;20908;-71
2024/02/25 11:27:17;;;;;;;55.60;2.10;;;;;;;;;;5071232;28;20487;-70
2024/02/25 11:29:44;;;;;;;55.80;2.13;;;;;;;;;;5071569;28;20962;-71
2024/02/25 11:32:31;;;;;;;55.60;2.03;;;;;;;;;;5071365;28;20524;-70
2024/02/25 11:35:00;;;;;;;56.90;3.13;;;;;;;;;;5070986;28;20455;-70
2024/02/25 11:37:27;;;;;;;57.37;2.77;;;;;;;;;;5071012;28;20444;-71
2024/02/25 11:39:54;;;;;;;55.83;2.50;;;;;;;;;;5070787;28;20550;-71
2024/02/25 11:42:21;;;;;;;56.20;2.73;;;;;;;;;;5071316;28;20444;-71
2024/02/25 11:44:49;;;;;;;55.83;2.63;;;;;;;;;;5071127;28;20455;-71
2024/02/25 11:47:17;;;;;;;55.30;2.00;;;;;;;;;;5070994;28;20495;-72
2024/02/25 11:49:45;;;;;;;56.53;2.00;;;;;;;;;;5064394;28;20454;-72
2024/02/25 11:52:12;;;;;;;55.83;2.23;;;;;;;;;;5074680;28;20453;-71
2024/02/25 11:54:39;;;;;;;55.30;1.90;;;;;;;;;;5055280;28;20817;-71
2024/02/25 11:57:06;;;;;;;56.30;1.90;;;;;;;;;;5055100;28;20461;-71
2024/02/25 11:59:34;;;;;;;55.27;1.90;;;;;;;;;;5054462;28;20543;-71
2024/02/25 12:02:03;;;;;;;55.23;2.00;;;;;;;;;;5054502;28;20449;-71
2024/02/25 12:04:32;;;;;;;59.93;2.50;;;;;;;;;;5054219;28;20893;-71
2024/02/25 12:07:04;;;;;;;55.40;2.07;;;;;;;;;;5054878;28;20852;-70
2024/02/25 12:09:31;;;;;;;55.60;1.90;;;;;;;;;;5064530;28;20452;-70
2024/02/25 12:11:58;;;;;;;55.47;2.13;;;;;;;;;;5074829;28;20558;-71
2024/02/25 12:14:26;;;;;;;55.50;1.97;;;;;;;;;;5074406;28;20448;-70
2024/02/25 12:16:53;;;;;;;55.67;2.17;;;;;;;;;;5074336;28;20474;-71
2024/02/25 12:19:21;;;;;;;55.63;2.03;;;;;;;;;;5073704;28;20791;-71
2024/02/25 12:21:51;;;;;;;55.20;2.00;;;;;;;;;;5074333;28;20452;-71
2024/02/25 12:24:18;;;;;;;55.80;2.00;;;;;;;;;;5074459;28;20479;-71
2024/02/25 12:26:52;;;;;;;55.57;2.10;;;;;;;;;;5073675;28;20463;-71
2024/02/25 12:29:19;;;;;;;55.67;2.20;;;;;;;;;;5074355;28;20451;-71
2024/02/25 12:31:46;;;;;;;55.50;1.80;;;;;;;;;;5073856;28;20440;-71
2024/02/25 12:34:13;;;;;;;55.90;2.30;;;;;;;;;;5073908;28;20451;-71
2024/02/25 12:36:40;;;;;;;55.47;1.83;;;;;;;;;;5074464;28;20468;-71
2024/02/25 12:39:12;;;;;;;55.40;1.90;;;;;;;;;;5073554;28;20440;-71
2024/02/25 12:41:40;;;;;;;55.63;1.93;;;;;;;;;;5070693;28;20448;-71
2024/02/25 12:44:08;;;;;;;56.00;2.20;;;;;;;;;;5072386;28;20509;-70
2024/02/25 12:46:35;;;;;;;55.47;2.07;;;;;;;;;;5072679;28;20988;-70
2024/02/25 12:49:11;;;;;;;56.00;2.00;;;;;;;;;;5072719;28;20495;-70
2024/02/25 12:51:38;;;;;;;55.60;2.13;;;;;;;;;;5073515;28;20451;-70
2024/02/25 12:54:06;;;;;;;55.60;2.00;;;;;;;;;;5072812;28;20444;-71
2024/02/25 12:56:37;;;;;;;55.50;2.23;;;;;;;;;;5073642;28;20905;-71
2024/02/25 12:59:04;;;;;;;55.43;2.10;;;;;;;;;;5073596;28;20451;-71
2024/02/25 13:01:31;;;;;;;58.47;2.17;;;;;;;;;;5071950;28;20938;-71
2024/02/25 13:03:58;;;;;;;55.70;2.40;;;;;;;;;;5073827;28;20967;-71
2024/02/25 13:06:25;;;;;;;55.20;2.23;;;;;;;;;;5057164;28;20560;-71
2024/02/25 13:08:54;;;;;;;55.70;2.00;;;;;;;;;;5053656;28;20488;-70
2024/02/25 13:11:21;;;;;;;55.23;1.90;;;;;;;;;;5053861;28;20480;-71
2024/02/25 13:13:49;;;;;;;55.90;2.10;;;;;;;;;;5065596;28;20503;-72
2024/02/25 13:16:17;;;;;;;55.17;2.10;;;;;;;;;;5073859;28;20820;-72
2024/02/25 13:18:44;;;;;;;55.17;1.87;;;;;;;;;;5073662;28;20440;-71
2024/02/25 13:21:11;;;;;;;55.60;2.00;;;;;;;;;;5073460;28;20444;-71
2024/02/25 13:23:38;;;;;;;55.60;2.10;;;;;;;;;;5073113;28;20447;-71
2024/02/25 13:26:08;;;;;;;56.80;2.23;;;;;;;;;;5073314;28;20468;-69
2024/02/25 13:28:35;;;;;;;55.17;1.93;;;;;;;;;;5073510;28;20903;-71
2024/02/25 13:31:04;;;;;;;56.27;2.07;;;;;;;;;;5073532;28;20539;-71
2024/02/25 13:33:31;;;;;;;55.60;1.90;;;;;;;;;;5073014;28;20517;-71
2024/02/25 13:35:59;;;;;;;55.70;2.10;;;;;;;;;;5073512;28;20459;-71
2024/02/25 13:38:26;;;;;;;55.40;2.10;;;;;;;;;;5072817;28;20479;-71
2024/02/25 13:40:53;;;;;;;55.17;2.10;;;;;;;;;;5073263;28;20470;-71
2024/02/25 13:43:20;;;;;;;55.30;2.20;;;;;;;;;;5072905;28;20450;-71
2024/02/25 13:45:48;;;;;;;55.10;1.77;;;;;;;;;;5072889;28;20493;-71
2024/02/25 13:48:16;;;;;;;55.10;1.80;;;;;;;;;;5073132;28;20440;-71
2024/02/25 13:50:44;;;;;;;55.57;1.90;;;;;;;;;;5072669;28;20956;-71
2024/02/25 13:53:11;;;;;;;55.60;2.10;;;;;;;;;;5073114;28;20448;-71
2024/02/25 13:55:38;;;;;;;56.47;2.70;;;;;;;;;;5062404;28;20479;-71
2024/02/25 13:58:05;;;;;;;56.10;2.30;;;;;;;;;;5053079;28;20512;-69
2024/02/25 14:00:32;;;;;;;55.67;2.37;;;;;;;;;;5052363;28;20925;-71
2024/02/25 14:02:59;;;;;;;56.00;2.47;;;;;;;;;;5052858;28;20448;-71
2024/02/25 14:05:29;;;;;;;55.87;2.10;;;;;;;;;;5052510;28;20469;-71
2024/02/25 14:07:57;;;;;;;55.57;2.40;;;;;;;;;;5052567;28;20445;-71
2024/02/25 14:10:24;;;;;;;56.00;2.30;;;;;;;;;;5052616;28;20449;-71
2024/02/25 14:12:51;;;;;;;55.87;2.13;;;;;;;;;;5064233;28;20816;-71
2024/02/25 14:15:18;;;;;;;55.50;2.00;;;;;;;;;;5065349;28;20453;-71
2024/02/25 14:17:47;;;;;;;56.10;2.40;;;;;;;;;;5052382;28;20492;-71
2024/02/25 14:20:14;;;;;;;55.93;2.40;;;;;;;;;;5052321;28;20449;-71
2024/02/25 14:22:43;;;;;;;56.37;2.57;;;;;;;;;;5052596;28;20949;-70
2024/02/25 14:25:10;;;;;;;55.97;2.03;;;;;;;;;;5052481;28;20449;-70
2024/02/25 14:27:37;;;;;;;56.20;2.50;;;;;;;;;;5062292;28;20447;-70
2024/02/25 14:30:04;;;;;;;56.77;2.43;;;;;;;;;;5072432;28;20475;-70
2024/02/25 14:32:31;;;;;;;55.80;2.30;;;;;;;;;;5072726;28;20936;-63